Aérodrome :
LOGIN :

S'inscrire | Disclaimer

   EN    FR    IT 

 










Légende :    VFR   VFR Marginal   IFR   IFR Intensif   IFR Très Intensif
Visi : 
Plafond : 
>= 8 km
>= 3000ft
5 à 8 km
1000 à 3000 ft
1500m à 5 km
500 à 1000 ft
800 à 1500m
200 à 500 ft
< 800m
< 200 ft
Symboles :   Orages  Brouillard  Fortes neiges  Fortes précipitations  Vent > 20 kt
SIGMETs :   Divers  Orages  Givrage  Turbulence  Onde Orograph.  Cendres Volcan.







- Altitude de l'aérodrome : 1234 ft
- Code IATA : LUX


ELLX - Luxembourg Findel

DERNIER METAR :
  • 232220Z 03007KT CAVOK 15/14 Q1019 NOSIG

METARs EXPIRÉS :
  • 232150Z 03007KT 9999 FEW060 BKN070 SCT080CB 15/14 Q1019 RE? NOSIG
  • 232120Z 02007KT 350V060 8000 -RA FEW045 BKN060CB 15/14 Q1019 NOSIG
  • 232050Z 03007KT 3500 RA FEW025 BKN045CB 15/14 Q1020 BECMG -RA
  • 232020Z 05008KT 8000 -SHRA FEW025 BKN050CB 15/14 Q1020 NOSIG
  • 231950Z 05005KT 8000 -SHRA FEW025 BKN070CB 15/14 Q1019 BECMG SHRA

TAF TAF ELLX
Valide du 23 à 18h jusqu'au 25 à 00h UTC


231700Z 2318/2424 06009KT 9999 SCT035
TEMPO 2318/2418 6000 SHRA SCT030CB
PROB40
TEMPO 2318/2323 VRB15G30KT 2500 TSRAGR BKN025CB
TEMPO 2401/2406 3000 BR BKN010
PROB40
TEMPO 2406/2418 VRB15G30KT 2500 TSRAGR BKN025CB
ATIS : +352 4798 27300
Météo : +352 4798 27010 / 27050
Pas de NOTAMs connus pour ce terrain.
1 SIGMET publié pour la FIR Brussels (EBBU) :
 
Orages fréquents
EBBU SIGMET 04 VALID 231917/232317 EBBR
EBBU BRUSSELS FIR FRQ TS OBS S OF N5010 TOP ABV FL340 MOV W15KT NC=



MET'MAP, la Météo Aéronautique d'un coup d'oeil ! - Copyright ORBIFLY Décembre 2007 - Disclaimer

ORBIFLY MET'MAP TEAM :

Programmation & Développement : Alexandra Zaïnal
Conception & Développement : Baudouin d'Aumeries
Co-Programmation & Développement : Marc-Olivier Méhu
Soutien technique & logistique : Manuel Goepfert

Contact : metmap@orbifly.com




SOURCES & CREDITS :

   NOAA